Terminal Aerodrome Forecast
Issued by NWS

Home | Current Version | Previous Version | Graphics & Text | Print | Product List | Glossary On
Versions: 1 2 3 4 5 6 7 8 9 10 11 12 13 14 15
000
FTUS43 KIWX 240500
TAFSBN
TAF
KSBN 240531Z 2406/2506 21010KT P6SM SCT250
     FM241400 21019G27KT 5SM BLSN SCT080
     FM241800 23019G29KT 3SM BLSN BKN050
      TEMPO 2420/2424 1SM -SHSN BLSN OVC020
     FM250000 29012KT 5SM -SHSN BKN020=

USA.gov is the U.S. government's official web portal to all federal, state and local government web resources and services.